createdAt,value
2018-11-21T00:01:45.799Z,-1.52
2018-11-21T00:04:34.935Z,-1.53
2018-11-21T00:07:04.970Z,-1.55
2018-11-21T00:09:35.081Z,-1.54
2018-11-21T00:12:14.444Z,-1.61
2018-11-21T00:14:44.542Z,-1.60
2018-11-21T00:17:33.634Z,-1.60
2018-11-21T00:20:22.701Z,-1.63
2018-11-21T00:23:11.602Z,-1.61
2018-11-21T00:25:42.950Z,-1.52
2018-11-21T00:28:12.758Z,-1.57
2018-11-21T00:30:42.806Z,-1.53
2018-11-21T00:33:12.691Z,-1.62
2018-11-21T00:35:44.865Z,-1.64
2018-11-21T00:38:15.145Z,-1.61
2018-11-21T00:41:13.197Z,-1.64
2018-11-21T00:44:08.770Z,-1.56
2018-11-21T00:46:39.608Z,-1.48
2018-11-21T00:49:12.685Z,-1.59
2018-11-21T00:52:01.806Z,-2.34
2018-11-21T00:54:51.053Z,-1.69
2018-11-21T00:57:40.320Z,-1.76
2018-11-21T01:00:30.238Z,-1.82
2018-11-21T01:03:00.475Z,-1.79
2018-11-21T01:05:49.593Z,-1.84
2018-11-21T01:08:38.691Z,-1.87
2018-11-21T01:11:27.386Z,-1.78
2018-11-21T01:14:16.626Z,-1.81
2018-11-21T01:16:46.084Z,-1.80
2018-11-21T01:19:34.857Z,-1.82
2018-11-21T01:22:23.912Z,-1.81
2018-11-21T01:24:53.921Z,-1.81
2018-11-21T01:27:24.074Z,-1.81
2018-11-21T01:30:13.188Z,-1.82
2018-11-21T01:32:43.228Z,-1.87
2018-11-21T01:35:32.919Z,-1.87
2018-11-21T01:38:03.779Z,-1.90
2018-11-21T01:40:53.241Z,-1.92
2018-11-21T01:43:42.560Z,-2.31
2018-11-21T01:49:03.549Z,-1.94
2018-11-21T01:51:33.797Z,-1.96
2018-11-21T01:54:22.892Z,-2.06
2018-11-21T01:56:52.364Z,-2.09
2018-11-21T01:59:41.060Z,-2.00
2018-11-21T02:02:31.022Z,-2.05
2018-11-21T02:05:20.411Z,-1.95
2018-11-21T02:08:09.439Z,-2.02
2018-11-21T02:10:39.559Z,-2.09
2018-11-21T02:13:28.622Z,-2.19
2018-11-21T02:16:17.354Z,-2.22
2018-11-21T02:19:06.410Z,-2.18
2018-11-21T02:21:55.828Z,-2.20
2018-11-21T02:24:44.546Z,-2.27
2018-11-21T02:27:34.838Z,-2.23
2018-11-21T02:30:04.837Z,-2.17
2018-11-21T02:32:47.565Z,-2.25
2018-11-21T02:35:17.531Z,-2.17
2018-11-21T02:37:47.010Z,-2.23
2018-11-21T02:40:36.017Z,-2.23
2018-11-21T02:43:24.742Z,-2.23
2018-11-21T02:45:54.795Z,-2.16
2018-11-21T02:48:24.639Z,-2.22
2018-11-21T02:50:54.426Z,-2.23
2018-11-21T02:53:26.084Z,-2.31
2018-11-21T02:56:15.343Z,-2.25
2018-11-21T02:58:45.390Z,-2.31
2018-11-21T03:01:15.680Z,-2.32
2018-11-21T03:03:45.401Z,-2.36
2018-11-21T03:06:34.480Z,-2.31
2018-11-21T03:09:23.831Z,-2.32
2018-11-21T03:11:53.325Z,-2.43
2018-11-21T03:14:23.608Z,-2.32
2018-11-21T03:16:53.351Z,-2.38
2018-11-21T03:19:23.094Z,-2.43
2018-11-21T03:21:53.653Z,-2.49
2018-11-21T03:24:23.713Z,-2.43
2018-11-21T03:26:53.431Z,-2.45
2018-11-21T03:29:23.614Z,-2.45
2018-11-21T03:31:53.577Z,-2.47
2018-11-21T03:34:42.314Z,-2.41
2018-11-21T03:37:31.455Z,-2.33
2018-11-21T03:40:20.485Z,-2.38
2018-11-21T03:43:09.183Z,-2.44
2018-11-21T03:45:58.239Z,-2.72
2018-11-21T03:48:27.869Z,-2.49
2018-11-21T03:50:57.554Z,-2.47
2018-11-21T03:53:43.646Z,-2.46
2018-11-21T03:56:32.415Z,-2.45
2018-11-21T03:59:02.264Z,-2.43
2018-11-21T04:01:33.430Z,-2.50
2018-11-21T04:04:03.654Z,-2.50
2018-11-21T04:06:52.692Z,-2.54
2018-11-21T04:09:42.035Z,-2.53
2018-11-21T04:12:12.324Z,-2.53
2018-11-21T04:15:01.076Z,-2.45
2018-11-21T04:17:50.073Z,-2.50
2018-11-21T04:20:19.605Z,-2.48
2018-11-21T04:23:09.102Z,-2.46
2018-11-21T04:25:39.039Z,-2.52
2018-11-21T04:28:09.379Z,-2.59
2018-11-21T04:30:39.279Z,-2.64
2018-11-21T04:33:28.716Z,-2.69
2018-11-21T04:35:59.177Z,-2.72
2018-11-21T04:38:29.681Z,-2.70
2018-11-21T04:40:59.457Z,-2.68
2018-11-21T04:43:28.962Z,-2.67
2018-11-21T04:46:03.542Z,-2.72
2018-11-21T04:48:33.771Z,-2.67
2018-11-21T04:51:03.984Z,-2.65
2018-11-21T04:53:52.706Z,-2.56
2018-11-21T04:56:41.751Z,-2.52
2018-11-21T04:59:55.871Z,-2.57
2018-11-21T05:02:25.856Z,-2.66
2018-11-21T05:04:56.067Z,-2.71
2018-11-21T05:07:27.282Z,-2.68
2018-11-21T05:10:15.902Z,-2.66
2018-11-21T05:12:45.927Z,-2.66
2018-11-21T05:15:16.695Z,-2.61
2018-11-21T05:17:51.400Z,-2.67
2018-11-21T05:20:21.643Z,-2.63
2018-11-21T05:23:11.109Z,-2.66
2018-11-21T05:25:41.423Z,-2.62
2018-11-21T05:28:30.886Z,-2.68
2018-11-21T05:34:16.005Z,-2.68
2018-11-21T05:37:05.466Z,-2.67
2018-11-21T05:39:54.188Z,-2.64
2018-11-21T05:42:44.110Z,-2.61
2018-11-21T05:45:34.610Z,-2.67
2018-11-21T05:48:24.594Z,-2.63
2018-11-21T05:51:13.656Z,-2.70
2018-11-21T05:54:17.996Z,-2.68
2018-11-21T05:57:09.007Z,-3.08
2018-11-21T05:59:39.703Z,-2.71
2018-11-21T06:02:10.134Z,-2.62
2018-11-21T06:04:59.121Z,-2.62
2018-11-21T06:07:48.576Z,-2.72
2018-11-21T06:10:27.539Z,-2.80
2018-11-21T06:13:14.223Z,-2.75
2018-11-21T06:16:04.971Z,-2.77
2018-11-21T06:18:34.811Z,-2.75
2018-11-21T06:21:04.594Z,-2.82
2018-11-21T06:23:53.759Z,-2.68
2018-11-21T06:26:25.508Z,-2.74
2018-11-21T06:29:14.511Z,-2.76
2018-11-21T06:31:44.404Z,-2.76
2018-11-21T06:34:33.509Z,-2.74
2018-11-21T06:37:23.630Z,-2.79
2018-11-21T06:39:53.421Z,-2.71
2018-11-21T06:42:52.731Z,-2.73
2018-11-21T06:45:24.297Z,-2.79
2018-11-21T06:47:54.539Z,-2.89
2018-11-21T06:50:23.938Z,-2.88
2018-11-21T06:52:54.461Z,-2.89
2018-11-21T06:55:24.315Z,-2.79
2018-11-21T06:58:16.005Z,-2.83
2018-11-21T07:00:45.571Z,-2.78
2018-11-21T07:03:34.634Z,-2.73
2018-11-21T07:06:04.813Z,-2.75
2018-11-21T07:08:53.874Z,-2.68
2018-11-21T07:11:23.320Z,-2.71
2018-11-21T07:13:53.400Z,-2.64
2018-11-21T07:16:42.798Z,-2.59
2018-11-21T07:19:12.186Z,-2.57
2018-11-21T07:21:42.201Z,-2.42
2018-11-21T07:24:11.877Z,-2.45
2018-11-21T07:27:00.888Z,-2.49
2018-11-21T07:29:34.727Z,-3.36
2018-11-21T07:32:00.030Z,-2.37
2018-11-21T07:34:49.073Z,-2.38
2018-11-21T07:37:19.310Z,-2.27
2018-11-21T07:40:09.050Z,-2.12
2018-11-21T07:42:39.019Z,-2.02
2018-11-21T07:45:27.840Z,-1.84
2018-11-21T07:47:57.749Z,-1.81
2018-11-21T07:50:46.520Z,-1.68
2018-11-21T07:53:16.371Z,-1.56
2018-11-21T07:55:46.530Z,-1.56
2018-11-21T07:58:38.066Z,-1.40
2018-11-21T08:01:15.007Z,-1.80
2018-11-21T08:04:22.949Z,-1.31
2018-11-21T08:06:56.865Z,-1.22
2018-11-21T08:09:47.514Z,-1.17
2018-11-21T08:12:36.279Z,-1.12
2018-11-21T08:15:46.920Z,-0.94
2018-11-21T08:18:53.461Z,-0.84
2018-11-21T08:22:01.230Z,-0.74
2018-11-21T08:24:50.184Z,-0.66
2018-11-21T08:27:58.117Z,-0.61
2018-11-21T08:30:47.384Z,-0.45
2018-11-21T08:33:17.422Z,-0.34
2018-11-21T08:36:06.905Z,-0.27
2018-11-21T08:38:36.972Z,-1.14
2018-11-21T08:41:25.869Z,-0.02
2018-11-21T08:44:14.925Z,-0.74
2018-11-21T08:46:44.270Z,-0.70
2018-11-21T08:49:33.238Z,0.30
2018-11-21T08:52:22.010Z,0.41
2018-11-21T08:55:12.036Z,0.49
2018-11-21T08:58:00.787Z,0.56
2018-11-21T09:00:51.154Z,0.67
2018-11-21T09:03:40.141Z,0.83
2018-11-21T09:06:29.107Z,0.98
2018-11-21T09:09:17.853Z,1.06
2018-11-21T09:11:47.240Z,1.17
2018-11-21T09:14:36.663Z,1.28
2018-11-21T09:17:07.375Z,1.31
2018-11-21T09:19:37.334Z,1.38
2018-11-21T09:22:26.500Z,1.48
2018-11-21T09:25:15.095Z,1.53
2018-11-21T09:28:04.162Z,1.62
2018-11-21T09:30:53.196Z,1.65
2018-11-21T09:33:42.476Z,1.64
2018-11-21T09:36:12.416Z,1.71
2018-11-21T09:38:42.127Z,1.75
2018-11-21T09:41:12.117Z,1.78
2018-11-21T09:44:01.246Z,1.82
2018-11-21T09:46:31.272Z,1.77
2018-11-21T09:49:01.049Z,1.82
2018-11-21T09:51:50.402Z,1.98
2018-11-21T09:54:39.901Z,1.99
2018-11-21T09:57:29.056Z,1.94
2018-11-21T10:00:40.087Z,1.99
2018-11-21T10:03:13.084Z,2.00
2018-11-21T10:08:38.589Z,1.98
2018-11-21T10:11:27.961Z,1.96
2018-11-21T10:14:16.608Z,1.99
2018-11-21T10:16:46.476Z,1.90
2018-11-21T10:33:16.166Z,1.84
2018-11-21T10:35:52.053Z,1.87
2018-11-21T10:39:00.145Z,2.02
2018-11-21T10:41:29.757Z,2.11
2018-11-21T10:44:01.544Z,2.25
2018-11-21T10:46:31.031Z,2.18
2018-11-21T10:49:19.952Z,2.09
2018-11-21T10:51:49.563Z,2.02
2018-11-21T10:54:19.318Z,1.96
2018-11-21T10:56:49.801Z,1.90
2018-11-21T10:59:19.715Z,1.90
2018-11-21T11:02:27.602Z,1.92
2018-11-21T11:05:33.427Z,1.96
2018-11-21T11:08:22.114Z,2.07
2018-11-21T11:11:29.913Z,2.15
2018-11-21T11:14:22.002Z,2.19
2018-11-21T11:17:10.571Z,2.19
2018-11-21T11:20:14.338Z,2.11
2018-11-21T11:23:19.941Z,2.19
2018-11-21T11:26:06.982Z,2.09
2018-11-21T11:28:58.518Z,2.36
2018-11-21T11:31:47.067Z,2.33
2018-11-21T11:34:54.897Z,2.44
2018-11-21T11:37:43.514Z,1.49
2018-11-21T11:40:33.315Z,2.25
2018-11-21T11:43:44.209Z,2.30
2018-11-21T11:46:32.893Z,2.32
2018-11-21T11:49:40.757Z,2.18
2018-11-21T11:52:48.631Z,2.01
2018-11-21T11:55:37.184Z,2.04
2018-11-21T11:58:25.751Z,2.11
2018-11-21T12:01:39.326Z,2.11
2018-11-21T12:04:33.824Z,2.24
2018-11-21T12:07:41.971Z,2.30
2018-11-21T12:10:30.684Z,2.39
2018-11-21T12:13:38.840Z,2.42
2018-11-21T12:16:49.379Z,2.54
2018-11-21T12:19:26.323Z,2.42
2018-11-21T12:22:24.855Z,2.51
2018-11-21T12:25:13.393Z,2.60
2018-11-21T12:28:21.618Z,2.58
2018-11-21T12:31:10.205Z,2.57
2018-11-21T12:34:01.451Z,2.56
2018-11-21T12:36:50.043Z,2.59
2018-11-21T12:39:39.670Z,2.63
2018-11-21T12:42:28.182Z,2.68
2018-11-21T12:45:26.341Z,2.68
2018-11-21T12:48:27.363Z,2.58
2018-11-21T12:51:30.041Z,2.50
2018-11-21T12:54:18.522Z,2.38
2018-11-21T12:57:10.364Z,2.33
2018-11-21T13:00:18.127Z,2.30
2018-11-21T13:03:26.000Z,1.54
2018-11-21T13:06:14.549Z,2.28
2018-11-21T13:09:22.373Z,2.39
2018-11-21T13:12:11.248Z,2.56
2018-11-21T13:15:19.135Z,2.65
2018-11-21T13:18:27.039Z,2.65
2018-11-21T13:21:11.282Z,2.67
2018-11-21T13:24:19.378Z,2.67
2018-11-21T13:27:27.245Z,2.68
2018-11-21T13:30:15.872Z,2.73
2018-11-21T13:33:07.333Z,2.69
2018-11-21T13:36:15.182Z,2.67
2018-11-21T13:42:20.284Z,2.59
2018-11-21T13:45:28.161Z,2.51
2018-11-21T13:48:16.663Z,2.46
2018-11-21T13:51:05.206Z,2.46
2018-11-21T13:53:53.736Z,2.40
2018-11-21T13:56:23.362Z,2.43
2018-11-21T13:58:53.004Z,2.46
2018-11-21T14:01:42.219Z,2.40
2018-11-21T14:04:14.439Z,2.14
2018-11-21T14:07:03.884Z,2.41
2018-11-21T14:09:33.514Z,2.47
2018-11-21T14:12:22.727Z,2.47
2018-11-21T14:14:55.449Z,2.39
2018-11-21T14:17:42.903Z,2.38
2018-11-21T14:20:13.399Z,2.41
2018-11-21T14:23:02.301Z,2.45
2018-11-21T14:25:31.883Z,2.47
2018-11-21T14:28:21.041Z,2.49
2018-11-21T14:30:50.617Z,2.47
2018-11-21T14:33:20.302Z,2.57
2018-11-21T14:35:55.967Z,2.53
2018-11-21T14:38:38.962Z,2.48
2018-11-21T14:41:27.784Z,2.41
2018-11-21T14:44:16.718Z,2.46
2018-11-21T14:47:07.071Z,2.44
2018-11-21T14:49:57.811Z,2.45
2018-11-21T14:52:46.623Z,2.45
2018-11-21T14:55:16.194Z,2.47
2018-11-21T14:57:45.865Z,2.40
2018-11-21T15:00:35.006Z,2.37
2018-11-21T15:03:04.633Z,2.39
2018-11-21T15:05:53.674Z,2.38
2018-11-21T15:08:42.503Z,2.40
2018-11-21T15:11:12.074Z,2.33
2018-11-21T15:14:01.136Z,2.36
2018-11-21T15:17:08.948Z,2.47
2018-11-21T15:19:38.586Z,2.37
2018-11-21T15:22:08.129Z,2.32
2018-11-21T15:24:56.984Z,2.21
2018-11-21T15:27:46.024Z,2.18
2018-11-21T15:30:18.442Z,2.15
2018-11-21T15:32:48.132Z,2.14
2018-11-21T15:35:37.175Z,2.14
2018-11-21T15:38:27.092Z,2.17
2018-11-21T15:40:56.715Z,2.28
2018-11-21T15:43:45.736Z,2.23
2018-11-21T15:46:15.452Z,2.22
2018-11-21T15:49:04.332Z,2.25
2018-11-21T15:51:33.927Z,2.25
2018-11-21T15:54:03.520Z,2.22
2018-11-21T15:56:33.118Z,2.29
2018-11-21T15:59:02.567Z,2.28
2018-11-21T16:01:32.238Z,2.31
2018-11-21T16:04:01.790Z,2.31
2018-11-21T16:06:31.432Z,2.35
2018-11-21T16:09:01.066Z,2.35
2018-11-21T16:11:30.605Z,2.36
2018-11-21T16:14:00.207Z,2.30
2018-11-21T16:16:32.623Z,2.28
2018-11-21T16:19:21.515Z,2.26
2018-11-21T16:21:51.137Z,2.31
2018-11-21T16:24:20.745Z,2.23
2018-11-21T16:26:50.613Z,2.24
2018-11-21T16:29:39.506Z,2.28
2018-11-21T16:32:09.064Z,2.23
2018-11-21T16:34:57.952Z,2.25
2018-11-21T16:37:27.548Z,2.23
2018-11-21T16:39:57.107Z,2.32
2018-11-21T16:42:26.666Z,2.28
2018-11-21T16:44:56.224Z,2.19
2018-11-21T16:47:25.804Z,2.19
2018-11-21T16:49:55.368Z,2.11
2018-11-21T16:52:44.255Z,2.05
2018-11-21T16:55:33.183Z,2.05
2018-11-21T16:58:03.536Z,2.10
2018-11-21T17:00:35.549Z,2.08
2018-11-21T17:03:05.077Z,2.11
2018-11-21T17:05:34.670Z,2.16
